sensor_id;sensor_type;location;lat;lon;timestamp;pressure;altitude;pressure_sealevel;temperature;humidity
49729;BME280;66333;49.798;10.968;2023-07-29T00:01:16;97691.44;;;20.29;54.55
49729;BME280;66333;49.798;10.968;2023-07-29T00:03:46;97685.31;;;20.29;54.53
49729;BME280;66333;49.798;10.968;2023-07-29T00:06:16;97688.06;;;20.22;54.73
49729;BME280;66333;49.798;10.968;2023-07-29T00:08:46;97685.88;;;20.19;55.06
49729;BME280;66333;49.798;10.968;2023-07-29T00:11:19;97677.56;;;20.27;54.44
49729;BME280;66333;49.798;10.968;2023-07-29T00:13:47;97675.81;;;20.21;54.70
49729;BME280;66333;49.798;10.968;2023-07-29T00:16:17;97673.97;;;20.22;54.88
49729;BME280;66333;49.798;10.968;2023-07-29T00:18:48;97671.53;;;20.20;54.77
49729;BME280;66333;49.798;10.968;2023-07-29T00:21:19;97671.06;;;20.23;54.77
49729;BME280;66333;49.798;10.968;2023-07-29T00:23:55;97668.28;;;20.18;54.74
49729;BME280;66333;49.798;10.968;2023-07-29T00:26:24;97668.16;;;20.25;54.62
49729;BME280;66333;49.798;10.968;2023-07-29T00:28:55;97665.31;;;20.26;54.51
49729;BME280;66333;49.798;10.968;2023-07-29T00:31:25;97669.22;;;20.24;54.64
49729;BME280;66333;49.798;10.968;2023-07-29T00:33:55;97663.69;;;20.25;54.68
49729;BME280;66333;49.798;10.968;2023-07-29T00:36:25;97658.38;;;20.25;54.57
49729;BME280;66333;49.798;10.968;2023-07-29T00:38:53;97666.22;;;20.20;54.75
49729;BME280;66333;49.798;10.968;2023-07-29T00:41:23;97674.75;;;20.22;54.68
49729;BME280;66333;49.798;10.968;2023-07-29T00:44:00;97673.16;;;20.21;54.66
49729;BME280;66333;49.798;10.968;2023-07-29T00:46:29;97671.53;;;20.20;54.78
49729;BME280;66333;49.798;10.968;2023-07-29T00:49:00;97670.47;;;20.21;54.72
49729;BME280;66333;49.798;10.968;2023-07-29T00:51:30;97675.66;;;20.16;54.81
49729;BME280;66333;49.798;10.968;2023-07-29T00:54:00;97677.00;;;20.25;54.74
49729;BME280;66333;49.798;10.968;2023-07-29T00:56:33;97673.00;;;20.16;54.76
49729;BME280;66333;49.798;10.968;2023-07-29T00:59:01;97660.41;;;20.23;54.80
49729;BME280;66333;49.798;10.968;2023-07-29T01:01:29;97665.50;;;20.13;54.79
49729;BME280;66333;49.798;10.968;2023-07-29T01:03:59;97664.59;;;20.19;54.76
49729;BME280;66333;49.798;10.968;2023-07-29T01:06:34;97671.06;;;20.23;54.64
49729;BME280;66333;49.798;10.968;2023-07-29T01:09:16;97675.56;;;20.23;54.59
49729;BME280;66333;49.798;10.968;2023-07-29T01:11:55;97667.72;;;20.28;54.53
49729;BME280;66333;49.798;10.968;2023-07-29T01:14:39;97671.28;;;20.22;54.71
49729;BME280;66333;49.798;10.968;2023-07-29T01:17:13;97668.16;;;20.25;54.58
49729;BME280;66333;49.798;10.968;2023-07-29T01:19:49;97667.34;;;20.24;54.49
49729;BME280;66333;49.798;10.968;2023-07-29T01:22:21;97667.34;;;20.24;54.50
49729;BME280;66333;49.798;10.968;2023-07-29T01:25:09;97670.03;;;20.24;54.45
49729;BME280;66333;49.798;10.968;2023-07-29T01:27:39;97666.56;;;20.24;54.49
49729;BME280;66333;49.798;10.968;2023-07-29T01:30:10;97669.44;;;20.22;54.44
49729;BME280;66333;49.798;10.968;2023-07-29T01:32:48;97671.28;;;20.22;54.70
49729;BME280;66333;49.798;10.968;2023-07-29T01:35:35;97661.84;;;20.38;53.88
49729;BME280;66333;49.798;10.968;2023-07-29T01:38:12;97667.03;;;20.21;54.62
49729;BME280;66333;49.798;10.968;2023-07-29T01:40:50;97668.88;;;20.20;54.77
49729;BME280;66333;49.798;10.968;2023-07-29T01:43:22;97673.63;;;20.18;54.76
49729;BME280;66333;49.798;10.968;2023-07-29T01:45:52;97669.00;;;20.25;54.65
49729;BME280;66333;49.798;10.968;2023-07-29T01:48:29;97676.38;;;20.23;54.57
49729;BME280;66333;49.798;10.968;2023-07-29T01:51:00;97679.03;;;20.23;54.67
49729;BME280;66333;49.798;10.968;2023-07-29T01:53:29;97676.38;;;20.23;54.46
49729;BME280;66333;49.798;10.968;2023-07-29T01:56:05;97668.41;;;20.23;54.42
49729;BME280;66333;49.798;10.968;2023-07-29T01:58:33;97665.03;;;20.16;54.74
49729;BME280;66333;49.798;10.968;2023-07-29T02:01:03;97665.06;;;20.28;54.42
49729;BME280;66333;49.798;10.968;2023-07-29T02:03:32;97667.34;;;20.24;54.56
49729;BME280;66333;49.798;10.968;2023-07-29T02:06:00;97666.22;;;20.20;54.52
49729;BME280;66333;49.798;10.968;2023-07-29T02:08:37;97668.28;;;20.18;54.57
49729;BME280;66333;49.798;10.968;2023-07-29T02:11:12;97669.44;;;20.22;54.45
49729;BME280;66333;49.798;10.968;2023-07-29T02:13:41;97666.69;;;20.17;54.76
49729;BME280;66333;49.798;10.968;2023-07-29T02:16:10;97663.88;;;20.12;54.79
49729;BME280;66333;49.798;10.968;2023-07-29T02:18:40;97662.84;;;20.13;54.96
49729;BME280;66333;49.798;10.968;2023-07-29T02:21:10;97656.03;;;20.17;54.73
49729;BME280;66333;49.798;10.968;2023-07-29T02:23:40;97663.06;;;20.12;54.84
49729;BME280;66333;49.798;10.968;2023-07-29T02:26:23;97655.09;;;20.23;54.38
49729;BME280;66333;49.798;10.968;2023-07-29T02:28:52;97656.03;;;20.17;54.54
49729;BME280;66333;49.798;10.968;2023-07-29T02:31:28;97643.41;;;20.24;54.30
49729;BME280;66333;49.798;10.968;2023-07-29T02:33:59;97640.41;;;20.21;54.41
49729;BME280;66333;49.798;10.968;2023-07-29T02:36:29;97644.22;;;20.13;54.83
49729;BME280;66333;49.798;10.968;2023-07-29T02:38:59;97632.66;;;20.19;54.48
49729;BME280;66333;49.798;10.968;2023-07-29T02:41:43;97638.91;;;20.13;54.90
49729;BME280;66333;49.798;10.968;2023-07-29T02:44:12;97617.03;;;20.23;54.57
49729;BME280;66333;49.798;10.968;2023-07-29T02:46:41;97621.13;;;20.25;54.42
49729;BME280;66333;49.798;10.968;2023-07-29T02:49:11;97613.13;;;20.25;54.21
49729;BME280;66333;49.798;10.968;2023-07-29T02:51:41;97602.34;;;20.20;54.42
49729;BME280;66333;49.798;10.968;2023-07-29T02:54:12;97605.59;;;20.22;54.61
49729;BME280;66333;49.798;10.968;2023-07-29T02:56:44;97612.66;;;20.17;54.58
49729;BME280;66333;49.798;10.968;2023-07-29T02:59:19;97613.56;;;20.11;54.87
49729;BME280;66333;49.798;10.968;2023-07-29T03:01:55;97612.53;;;20.12;54.64
49729;BME280;66333;49.798;10.968;2023-07-29T03:04:25;97603.75;;;20.11;54.68
49729;BME280;66333;49.798;10.968;2023-07-29T03:06:53;97605.34;;;20.12;54.81
49729;BME280;66333;49.798;10.968;2023-07-29T03:09:23;97606.63;;;20.10;54.72
49729;BME280;66333;49.798;10.968;2023-07-29T03:11:55;97601.31;;;20.10;54.77
49729;BME280;66333;49.798;10.968;2023-07-29T03:14:25;97600.59;;;20.14;54.69
49729;BME280;66333;49.798;10.968;2023-07-29T03:17:02;97608.47;;;20.09;54.77
49729;BME280;66333;49.798;10.968;2023-07-29T03:19:29;97624.16;;;19.99;55.00
49729;BME280;66333;49.798;10.968;2023-07-29T03:22:00;97629.63;;;20.04;55.03
49729;BME280;66333;49.798;10.968;2023-07-29T03:24:30;97627.31;;;20.08;54.88
49729;BME280;66333;49.798;10.968;2023-07-29T03:27:12;97624.88;;;20.06;54.79
49729;BME280;66333;49.798;10.968;2023-07-29T03:29:43;97623.72;;;20.02;55.01
49729;BME280;66333;49.798;10.968;2023-07-29T03:32:11;97623.84;;;20.07;54.82
49729;BME280;66333;49.798;10.968;2023-07-29T03:34:41;97617.94;;;20.05;54.70
49729;BME280;66333;49.798;10.968;2023-07-29T03:37:11;97613.66;;;20.04;54.84
49729;BME280;66333;49.798;10.968;2023-07-29T03:39:41;97599.22;;;20.12;54.68
49729;BME280;66333;49.798;10.968;2023-07-29T03:42:17;97611.25;;;20.14;54.67
49729;BME280;66333;49.798;10.968;2023-07-29T03:44:46;97606.63;;;20.10;54.84
49729;BME280;66333;49.798;10.968;2023-07-29T03:47:16;97608.34;;;20.04;54.72
49729;BME280;66333;49.798;10.968;2023-07-29T03:49:47;97607.44;;;20.10;54.81
49729;BME280;66333;49.798;10.968;2023-07-29T03:52:16;97603.50;;;20.01;54.82
49729;BME280;66333;49.798;10.968;2023-07-29T03:54:47;97597.47;;;20.06;54.76
49729;BME280;66333;49.798;10.968;2023-07-29T03:57:21;97585.91;;;20.00;55.03
49729;BME280;66333;49.798;10.968;2023-07-29T03:59:51;97594.00;;;20.05;54.78
49729;BME280;66333;49.798;10.968;2023-07-29T04:02:19;97596.44;;;20.07;54.82
49729;BME280;66333;49.798;10.968;2023-07-29T04:04:49;97595.19;;;20.09;54.69
49729;BME280;66333;49.798;10.968;2023-07-29T04:07:18;97586.59;;;20.07;54.75
49729;BME280;66333;49.798;10.968;2023-07-29T04:09:50;97592.53;;;20.09;54.68
49729;BME280;66333;49.798;10.968;2023-07-29T04:12:28;97591.81;;;20.14;54.47
49729;BME280;66333;49.798;10.968;2023-07-29T04:14:56;97588.25;;;20.08;54.76
49729;BME280;66333;49.798;10.968;2023-07-29T04:17:26;97588.25;;;20.08;54.77
49729;BME280;66333;49.798;10.968;2023-07-29T04:19:56;97589.50;;;20.06;54.72
49729;BME280;66333;49.798;10.968;2023-07-29T04:22:27;97583.94;;;20.07;54.58
49729;BME280;66333;49.798;10.968;2023-07-29T04:24:58;97594.00;;;20.05;54.75
49729;BME280;66333;49.798;10.968;2023-07-29T04:27:41;97585.09;;;19.99;54.82
49729;BME280;66333;49.798;10.968;2023-07-29T04:30:11;97589.59;;;19.99;54.74
49729;BME280;66333;49.798;10.968;2023-07-29T04:32:41;97588.56;;;20.00;54.88
49729;BME280;66333;49.798;10.968;2023-07-29T04:35:13;97599.56;;;20.04;54.72
49729;BME280;66333;49.798;10.968;2023-07-29T04:37:42;97599.22;;;20.00;54.74
49729;BME280;66333;49.798;10.968;2023-07-29T04:40:15;97605.69;;;20.04;54.73
49729;BME280;66333;49.798;10.968;2023-07-29T04:42:51;97620.16;;;20.08;54.73
49729;BME280;66333;49.798;10.968;2023-07-29T04:45:21;97622.59;;;20.10;54.70
49729;BME280;66333;49.798;10.968;2023-07-29T04:47:52;97628.72;;;20.10;54.62
49729;BME280;66333;49.798;10.968;2023-07-29T04:50:24;97630.34;;;20.11;54.49
49729;BME280;66333;49.798;10.968;2023-07-29T04:52:51;97613.47;;;20.17;54.33
49729;BME280;66333;49.798;10.968;2023-07-29T04:55:22;97604.78;;;20.10;54.34
49729;BME280;66333;49.798;10.968;2023-07-29T04:57:50;97597.03;;;20.20;54.18
49729;BME280;66333;49.798;10.968;2023-07-29T05:00:17;97596.22;;;20.08;54.47
49729;BME280;66333;49.798;10.968;2023-07-29T05:02:43;97593.56;;;20.08;54.54
49729;BME280;66333;49.798;10.968;2023-07-29T05:05:09;97595.38;;;20.08;54.57
49729;BME280;66333;49.798;10.968;2023-07-29T05:07:36;97588.13;;;20.03;54.81
49729;BME280;66333;49.798;10.968;2023-07-29T05:10:03;97585.78;;;20.07;54.70
49729;BME280;66333;49.798;10.968;2023-07-29T05:12:30;97580.13;;;20.03;54.70
49729;BME280;66333;49.798;10.968;2023-07-29T05:14:59;97565.88;;;19.86;55.26
49729;BME280;66333;49.798;10.968;2023-07-29T05:17:25;97558.38;;;19.83;55.40
49729;BME280;66333;49.798;10.968;2023-07-29T05:19:53;97546.69;;;19.84;55.64
49729;BME280;66333;49.798;10.968;2023-07-29T05:22:24;97546.81;;;19.89;55.41
49729;BME280;66333;49.798;10.968;2023-07-29T05:24:59;97545.66;;;19.85;55.53
49729;BME280;66333;49.798;10.968;2023-07-29T05:27:35;97546.47;;;19.85;55.58
49729;BME280;66333;49.798;10.968;2023-07-29T05:30:18;97548.41;;;19.90;55.27
49729;BME280;66333;49.798;10.968;2023-07-29T05:32:47;97559.31;;;20.00;55.22
49729;BME280;66333;49.798;10.968;2023-07-29T05:35:17;97560.00;;;20.07;54.85
49729;BME280;66333;49.798;10.968;2023-07-29T05:37:47;97560.94;;;20.01;55.21
49729;BME280;66333;49.798;10.968;2023-07-29T05:40:17;97555.75;;;20.18;55.07
49729;BME280;66333;49.798;10.968;2023-07-29T05:42:47;97556.09;;;20.21;55.07
49729;BME280;66333;49.798;10.968;2023-07-29T05:45:20;97548.69;;;20.23;54.85
49729;BME280;66333;49.798;10.968;2023-07-29T05:47:47;97547.06;;;20.22;54.97
49729;BME280;66333;49.798;10.968;2023-07-29T05:50:16;97553.44;;;20.21;54.99
49729;BME280;66333;49.798;10.968;2023-07-29T05:52:58;97554.00;;;20.23;54.99
49729;BME280;66333;49.798;10.968;2023-07-29T05:55:28;97560.94;;;20.24;54.92
49729;BME280;66333;49.798;10.968;2023-07-29T05:57:57;97559.22;;;20.18;54.99
49729;BME280;66333;49.798;10.968;2023-07-29T06:00:38;97563.38;;;20.14;55.44
49729;BME280;66333;49.798;10.968;2023-07-29T06:03:08;97559.56;;;20.10;55.36
49729;BME280;66333;49.798;10.968;2023-07-29T06:05:39;97561.88;;;20.18;54.47
49729;BME280;66333;49.798;10.968;2023-07-29T06:08:14;97572.06;;;20.21;54.68
49729;BME280;66333;49.798;10.968;2023-07-29T06:10:55;97569.41;;;20.10;55.25
49729;BME280;66333;49.798;10.968;2023-07-29T06:13:25;97569.84;;;20.18;54.80
49729;BME280;66333;49.798;10.968;2023-07-29T06:16:07;97566.97;;;20.08;55.41
49729;BME280;66333;49.798;10.968;2023-07-29T06:18:38;97569.97;;;20.23;55.11
49729;BME280;66333;49.798;10.968;2023-07-29T06:21:05;97572.06;;;20.21;55.10
49729;BME280;66333;49.798;10.968;2023-07-29T06:23:39;97569.97;;;20.23;55.12
49729;BME280;66333;49.798;10.968;2023-07-29T06:26:06;97575.41;;;20.17;55.57
49729;BME280;66333;49.798;10.968;2023-07-29T06:28:37;97571.81;;;20.23;55.47
49729;BME280;66333;49.798;10.968;2023-07-29T06:31:19;97573.44;;;20.12;55.84
49729;BME280;66333;49.798;10.968;2023-07-29T06:33:47;97568.78;;;20.08;55.84
49729;BME280;66333;49.798;10.968;2023-07-29T06:36:16;97569.50;;;20.03;56.13
49729;BME280;66333;49.798;10.968;2023-07-29T06:38:58;97573.31;;;20.19;55.50
49729;BME280;66333;49.798;10.968;2023-07-29T06:41:30;97567.19;;;20.18;55.58
49729;BME280;66333;49.798;10.968;2023-07-29T06:44:04;97569.72;;;20.25;55.62
49729;BME280;66333;49.798;10.968;2023-07-29T06:46:39;97578.06;;;20.28;55.42
49729;BME280;66333;49.798;10.968;2023-07-29T06:49:07;97572.63;;;20.23;56.49
49729;BME280;66333;49.798;10.968;2023-07-29T06:51:35;97575.28;;;20.23;58.40
49729;BME280;66333;49.798;10.968;2023-07-29T06:54:04;97583.97;;;20.19;59.78
49729;BME280;66333;49.798;10.968;2023-07-29T06:56:33;97583.84;;;20.14;61.24
49729;BME280;66333;49.798;10.968;2023-07-29T06:59:04;97602.56;;;20.07;62.89
49729;BME280;66333;49.798;10.968;2023-07-29T07:01:45;97603.22;;;19.91;63.83
49729;BME280;66333;49.798;10.968;2023-07-29T07:04:16;97603.22;;;19.91;64.85
49729;BME280;66333;49.798;10.968;2023-07-29T07:06:43;97600.44;;;19.86;65.79
49729;BME280;66333;49.798;10.968;2023-07-29T07:09:13;97603.63;;;20.18;65.45
49729;BME280;66333;49.798;10.968;2023-07-29T07:11:44;97595.06;;;20.39;62.04
49729;BME280;66333;49.798;10.968;2023-07-29T07:14:14;97596.66;;;20.99;57.96
49729;BME280;66333;49.798;10.968;2023-07-29T07:16:56;97582.50;;;21.10;57.31
49729;BME280;66333;49.798;10.968;2023-07-29T07:19:25;97580.31;;;21.07;59.12
49729;BME280;66333;49.798;10.968;2023-07-29T07:21:56;97573.06;;;21.19;56.36
49729;BME280;66333;49.798;10.968;2023-07-29T07:24:25;97578.47;;;21.07;58.75
49729;BME280;66333;49.798;10.968;2023-07-29T07:26:53;97576.03;;;21.06;58.96
49729;BME280;66333;49.798;10.968;2023-07-29T07:29:24;97578.00;;;20.99;59.30
49729;BME280;66333;49.798;10.968;2023-07-29T07:32:07;97572.06;;;20.68;60.58
49729;BME280;66333;49.798;10.968;2023-07-29T07:34:39;97572.44;;;20.60;62.20
49729;BME280;66333;49.798;10.968;2023-07-29T07:37:14;97574.13;;;20.66;63.90
49729;BME280;66333;49.798;10.968;2023-07-29T07:39:42;97584.56;;;20.56;67.18
49729;BME280;66333;49.798;10.968;2023-07-29T07:42:09;97576.47;;;20.63;65.38
49729;BME280;66333;49.798;10.968;2023-07-29T07:44:39;97579.34;;;20.49;68.71
49729;BME280;66333;49.798;10.968;2023-07-29T07:47:13;97567.91;;;20.61;64.41
49729;BME280;66333;49.798;10.968;2023-07-29T07:49:43;97562.00;;;20.70;67.88
49729;BME280;66333;49.798;10.968;2023-07-29T07:52:16;97557.00;;;20.86;63.34
49729;BME280;66333;49.798;10.968;2023-07-29T07:54:45;97542.16;;;20.90;61.09
49729;BME280;66333;49.798;10.968;2023-07-29T07:57:15;97540.91;;;20.80;65.54
49729;BME280;66333;49.798;10.968;2023-07-29T07:59:45;97557.81;;;20.74;66.32
49729;BME280;66333;49.798;10.968;2023-07-29T08:02:19;97556.53;;;20.65;66.31
49729;BME280;66333;49.798;10.968;2023-07-29T08:04:55;97552.84;;;20.66;66.20
49729;BME280;66333;49.798;10.968;2023-07-29T08:07:24;97553.19;;;20.58;66.38
49729;BME280;66333;49.798;10.968;2023-07-29T08:09:54;97548.22;;;20.50;66.64
49729;BME280;66333;49.798;10.968;2023-07-29T08:12:23;97544.84;;;20.66;65.60
49729;BME280;66333;49.798;10.968;2023-07-29T08:14:49;97544.16;;;20.71;65.09
49729;BME280;66333;49.798;10.968;2023-07-29T08:17:17;97547.75;;;20.65;65.32
49729;BME280;66333;49.798;10.968;2023-07-29T08:19:43;97550.28;;;20.71;64.80
49729;BME280;66333;49.798;10.968;2023-07-29T08:22:10;97537.44;;;20.80;63.48
49729;BME280;66333;49.798;10.968;2023-07-29T08:24:37;97520.53;;;20.74;63.86
49729;BME280;66333;49.798;10.968;2023-07-29T08:27:06;97515.75;;;20.76;63.83
49729;BME280;66333;49.798;10.968;2023-07-29T08:29:48;97546.09;;;20.75;63.51
49729;BME280;66333;49.798;10.968;2023-07-29T08:32:21;97550.50;;;20.81;62.44
49729;BME280;66333;49.798;10.968;2023-07-29T08:34:48;97558.59;;;20.87;61.13
49729;BME280;66333;49.798;10.968;2023-07-29T08:37:18;97576.44;;;20.74;62.49
49729;BME280;66333;49.798;10.968;2023-07-29T08:39:48;97560.81;;;20.78;61.24
49729;BME280;66333;49.798;10.968;2023-07-29T08:42:19;97589.66;;;20.69;62.59
49729;BME280;66333;49.798;10.968;2023-07-29T08:44:49;97595.22;;;20.56;62.76
49729;BME280;66333;49.798;10.968;2023-07-29T08:47:24;97595.31;;;20.73;60.25
49729;BME280;66333;49.798;10.968;2023-07-29T08:49:55;97592.53;;;20.79;58.70
49729;BME280;66333;49.798;10.968;2023-07-29T08:52:26;97586.03;;;20.87;58.81
49729;BME280;66333;49.798;10.968;2023-07-29T08:54:58;97590.31;;;20.76;61.23
49729;BME280;66333;49.798;10.968;2023-07-29T08:57:30;97591.63;;;20.74;61.68
49729;BME280;66333;49.798;10.968;2023-07-29T08:59:58;97585.47;;;20.73;61.48
49729;BME280;66333;49.798;10.968;2023-07-29T09:02:43;97587.22;;;20.79;60.60
49729;BME280;66333;49.798;10.968;2023-07-29T09:05:13;97583.03;;;20.83;60.43
49729;BME280;66333;49.798;10.968;2023-07-29T09:07:41;97589.50;;;20.76;60.72
49729;BME280;66333;49.798;10.968;2023-07-29T09:10:10;97580.50;;;20.77;61.22
49729;BME280;66333;49.798;10.968;2023-07-29T09:12:50;97589.41;;;20.82;62.85
49729;BME280;66333;49.798;10.968;2023-07-29T09:15:29;97598.44;;;20.81;66.06
49729;BME280;66333;49.798;10.968;2023-07-29T09:18:17;97589.41;;;20.82;65.86
49729;BME280;66333;49.798;10.968;2023-07-29T09:20:50;97593.31;;;20.92;63.89
49729;BME280;66333;49.798;10.968;2023-07-29T09:23:18;97593.78;;;20.89;68.00
49729;BME280;66333;49.798;10.968;2023-07-29T09:26:00;97602.47;;;20.84;67.14
49729;BME280;66333;49.798;10.968;2023-07-29T09:28:36;97598.19;;;20.95;66.02
49729;BME280;66333;49.798;10.968;2023-07-29T09:31:03;97603.72;;;21.05;65.25
49729;BME280;66333;49.798;10.968;2023-07-29T09:33:40;97590.97;;;21.07;63.90
49729;BME280;66333;49.798;10.968;2023-07-29T09:36:15;97606.72;;;21.08;66.40
49729;BME280;66333;49.798;10.968;2023-07-29T09:38:52;97602.78;;;21.11;65.51
49729;BME280;66333;49.798;10.968;2023-07-29T09:41:30;97596.63;;;21.10;65.20
49729;BME280;66333;49.798;10.968;2023-07-29T09:44:00;97593.75;;;21.12;65.58
49729;BME280;66333;49.798;10.968;2023-07-29T09:46:33;97603.44;;;21.18;65.62
49729;BME280;66333;49.798;10.968;2023-07-29T09:49:15;97601.38;;;21.20;64.94
49729;BME280;66333;49.798;10.968;2023-07-29T09:51:45;97597.16;;;21.24;64.72
49729;BME280;66333;49.798;10.968;2023-07-29T09:54:16;97588.84;;;21.21;65.26
49729;BME280;66333;49.798;10.968;2023-07-29T09:56:44;97595.06;;;21.26;65.68
49729;BME280;66333;49.798;10.968;2023-07-29T09:59:18;97587.00;;;21.21;64.82
49729;BME280;66333;49.798;10.968;2023-07-29T10:01:49;97578.88;;;21.16;66.27
49729;BME280;66333;49.798;10.968;2023-07-29T10:04:38;97561.47;;;21.25;64.97
49729;BME280;66333;49.798;10.968;2023-07-29T10:07:05;97566.81;;;21.25;65.57
49729;BME280;66333;49.798;10.968;2023-07-29T10:09:34;97571.00;;;21.21;65.62
49729;BME280;66333;49.798;10.968;2023-07-29T10:12:06;97563.09;;;21.26;64.93
49729;BME280;66333;49.798;10.968;2023-07-29T10:14:37;97558.16;;;21.30;64.97
49729;BME280;66333;49.798;10.968;2023-07-29T10:17:15;97548.28;;;21.30;63.44
49729;BME280;66333;49.798;10.968;2023-07-29T10:19:56;97544.09;;;21.34;65.41
49729;BME280;66333;49.798;10.968;2023-07-29T10:22:28;97540.84;;;21.32;64.15
49729;BME280;66333;49.798;10.968;2023-07-29T10:25:03;97542.47;;;21.33;65.26
49729;BME280;66333;49.798;10.968;2023-07-29T10:27:59;97536.09;;;21.34;64.83
49729;BME280;66333;49.798;10.968;2023-07-29T10:30:30;97542.47;;;21.33;65.97
49729;BME280;66333;49.798;10.968;2023-07-29T10:33:03;97550.56;;;21.38;66.34
49729;BME280;66333;49.798;10.968;2023-07-29T10:35:46;97547.91;;;21.38;65.57
49729;BME280;66333;49.798;10.968;2023-07-29T10:38:17;97555.91;;;21.38;63.20
49729;BME280;66333;49.798;10.968;2023-07-29T10:40:56;97555.91;;;21.38;65.85
49729;BME280;66333;49.798;10.968;2023-07-29T10:43:31;97554.63;;;21.41;66.76
49729;BME280;66333;49.798;10.968;2023-07-29T10:46:18;97552.50;;;21.43;65.30
49729;BME280;66333;49.798;10.968;2023-07-29T10:48:55;97557.84;;;21.43;66.64
49729;BME280;66333;49.798;10.968;2023-07-29T10:51:25;97556.56;;;21.46;66.88
49729;BME280;66333;49.798;10.968;2023-07-29T10:53:55;97560.59;;;21.48;66.62
49729;BME280;66333;49.798;10.968;2023-07-29T10:56:30;97548.66;;;21.51;66.41
49729;BME280;66333;49.798;10.968;2023-07-29T10:59:02;97552.94;;;21.52;66.29
49729;BME280;66333;49.798;10.968;2023-07-29T11:01:56;97548.41;;;21.52;66.34
49729;BME280;66333;49.798;10.968;2023-07-29T11:04:25;97545.03;;;21.57;66.59
49729;BME280;66333;49.798;10.968;2023-07-29T11:07:27;97548.00;;;21.60;66.39
49729;BME280;66333;49.798;10.968;2023-07-29T11:10:20;97548.00;;;21.60;66.27
49729;BME280;66333;49.798;10.968;2023-07-29T11:13:02;97552.88;;;21.63;65.98
49729;BME280;66333;49.798;10.968;2023-07-29T11:15:33;97545.69;;;21.64;65.96
49729;BME280;66333;49.798;10.968;2023-07-29T11:18:03;97538.50;;;21.64;65.66
49729;BME280;66333;49.798;10.968;2023-07-29T11:20:36;97534.22;;;21.63;65.78
49729;BME280;66333;49.798;10.968;2023-07-29T11:23:18;97540.91;;;21.66;66.03
49729;BME280;66333;49.798;10.968;2023-07-29T11:25:50;97531.06;;;21.66;65.31
49729;BME280;66333;49.798;10.968;2023-07-29T11:28:20;97539.31;;;21.65;65.58
49729;BME280;66333;49.798;10.968;2023-07-29T11:30:51;97536.06;;;21.63;65.53
49729;BME280;66333;49.798;10.968;2023-07-29T11:33:20;97527.34;;;21.67;64.79
49729;BME280;66333;49.798;10.968;2023-07-29T11:35:55;97536.72;;;21.70;64.74
49729;BME280;66333;49.798;10.968;2023-07-29T11:38:30;97529.75;;;21.69;64.10
49729;BME280;66333;49.798;10.968;2023-07-29T11:41:04;97513.44;;;21.65;64.12
49729;BME280;66333;49.798;10.968;2023-07-29T11:43:35;97520.72;;;21.70;64.21
49729;BME280;66333;49.798;10.968;2023-07-29T11:46:06;97514.00;;;21.67;64.36
49729;BME280;66333;49.798;10.968;2023-07-29T11:48:36;97518.78;;;21.65;64.51
49729;BME280;66333;49.798;10.968;2023-07-29T11:51:12;97532.38;;;21.64;64.29
49729;BME280;66333;49.798;10.968;2023-07-29T11:53:54;97519.09;;;21.69;63.54
49729;BME280;66333;49.798;10.968;2023-07-29T11:56:30;97515.63;;;21.68;63.33
49729;BME280;66333;49.798;10.968;2023-07-29T11:59:03;97508.13;;;21.65;64.25
49729;BME280;66333;49.798;10.968;2023-07-29T12:01:40;97512.16;;;21.68;64.39
49729;BME280;66333;49.798;10.968;2023-07-29T12:04:10;97517.16;;;21.64;64.31
49729;BME280;66333;49.798;10.968;2023-07-29T12:06:41;97512.94;;;21.68;64.04
49729;BME280;66333;49.798;10.968;2023-07-29T12:09:21;97519.09;;;21.69;63.87
49729;BME280;66333;49.798;10.968;2023-07-29T12:11:54;97518.28;;;21.85;64.30
49729;BME280;66333;49.798;10.968;2023-07-29T12:14:25;97507.22;;;21.93;63.93
49729;BME280;66333;49.798;10.968;2023-07-29T12:16:54;97516.19;;;21.87;64.24
49729;BME280;66333;49.798;10.968;2023-07-29T12:19:23;97521.31;;;21.89;64.33
49729;BME280;66333;49.798;10.968;2023-07-29T12:21:53;97517.88;;;21.93;63.86
49729;BME280;66333;49.798;10.968;2023-07-29T12:24:46;97510.63;;;21.89;63.91
49729;BME280;66333;49.798;10.968;2023-07-29T12:27:16;97508.81;;;21.94;63.85
49729;BME280;66333;49.798;10.968;2023-07-29T12:29:43;97500.38;;;22.14;63.64
49729;BME280;66333;49.798;10.968;2023-07-29T12:32:15;97490.00;;;22.18;63.18
49729;BME280;66333;49.798;10.968;2023-07-29T12:34:45;97482.75;;;22.35;62.60
49729;BME280;66333;49.798;10.968;2023-07-29T12:37:13;97492.75;;;22.23;63.16
49729;BME280;66333;49.798;10.968;2023-07-29T12:39:50;97487.41;;;22.23;63.03
49729;BME280;66333;49.798;10.968;2023-07-29T12:42:17;97478.28;;;22.19;63.07
49729;BME280;66333;49.798;10.968;2023-07-29T12:44:48;97472.88;;;22.14;63.37
49729;BME280;66333;49.798;10.968;2023-07-29T12:47:17;97479.31;;;22.18;63.71
49729;BME280;66333;49.798;10.968;2023-07-29T12:49:45;97476.25;;;22.26;64.03
49729;BME280;66333;49.798;10.968;2023-07-29T12:52:15;97477.94;;;22.32;63.56
49729;BME280;66333;49.798;10.968;2023-07-29T12:54:57;97480.81;;;22.47;63.53
49729;BME280;66333;49.798;10.968;2023-07-29T12:57:27;97475.19;;;22.27;63.36
49729;BME280;66333;49.798;10.968;2023-07-29T12:59:57;97470.25;;;22.19;62.68
49729;BME280;66333;49.798;10.968;2023-07-29T13:02:27;97474.50;;;22.15;63.73
49729;BME280;66333;49.798;10.968;2023-07-29T13:04:57;97472.94;;;22.19;63.53
49729;BME280;66333;49.798;10.968;2023-07-29T13:07:27;97471.41;;;22.23;63.31
49729;BME280;66333;49.798;10.968;2023-07-29T13:10:07;97466.38;;;22.27;62.54
49729;BME280;66333;49.798;10.968;2023-07-29T13:12:38;97458.09;;;22.28;62.80
49729;BME280;66333;49.798;10.968;2023-07-29T13:15:14;97460.16;;;22.21;62.15
49729;BME280;66333;49.798;10.968;2023-07-29T13:17:41;97459.13;;;22.22;62.65